Time;durP1;ratioP1;P1;durP2;ratioP2;P2;SDS_P1;SDS_P2;PMS_P1;PMS_P2;Temp;Humidity;BMP_temperature;BMP_pressure;BME280_temperature;BME280_humidity;BME280_pressure;Samples;Min_cycle;Max_cycle;Signal;HPM_P1;HPM_P2
2024/01/04 00:00:59;;;;;;;3.50;3.30;;;;;;;9.33;100.00;68387.44;5093674;28;20621;-64
2024/01/04 00:03:27;;;;;;;3.23;3.03;;;;;;;9.25;100.00;76848.81;5093865;28;20269;-63
2024/01/04 00:05:54;;;;;;;3.10;2.90;;;;;;;9.04;100.00;84003.75;5093576;28;20203;-65
2024/01/04 00:08:21;;;;;;;2.87;2.67;;;;;;;9.22;100.00;80761.59;5093416;28;20184;-65
2024/01/04 00:10:49;;;;;;;2.83;2.73;;;;;;;9.21;100.00;78149.25;5093676;28;20673;-64
2024/01/04 00:13:16;;;;;;;2.40;2.30;;;;;;;9.04;100.00;72585.50;5093670;28;20237;-64
2024/01/04 00:15:43;;;;;;;2.80;2.70;;;;;;;9.24;100.00;65124.19;5093839;28;20604;-64
2024/01/04 00:18:10;;;;;;;3.60;3.37;;;;;;;9.18;100.00;65442.53;5093961;28;20630;-64
2024/01/04 00:20:37;;;;;;;3.10;3.00;;;;;;;9.13;100.00;68689.22;5093480;28;20184;-64
2024/01/04 00:23:05;;;;;;;3.07;2.97;;;;;;;8.96;100.00;70295.97;5092639;28;20280;-64
2024/01/04 00:25:32;;;;;;;3.90;3.70;;;;;;;8.88;100.00;69961.47;5093399;28;20184;-64
2024/01/04 00:28:01;;;;;;;3.10;3.00;;;;;;;8.68;100.00;70588.59;5093354;28;20184;-65
2024/01/04 00:30:28;;;;;;;4.03;3.03;;;;;;;8.90;100.00;69963.91;5092884;28;20245;-64
2024/01/04 00:32:55;;;;;;;3.40;3.30;;;;;;;8.90;100.00;70288.69;5093725;28;20180;-64
2024/01/04 00:35:22;;;;;;;2.90;2.80;;;;;;;8.67;100.00;73841.59;5093142;28;20196;-64
2024/01/04 00:37:49;;;;;;;3.40;3.30;;;;;;;8.73;100.00;74499.97;5093349;28;20554;-64
2024/01/04 00:40:17;;;;;;;3.20;3.10;;;;;;;8.62;100.00;67329.78;5093098;28;20192;-65
2024/01/04 00:42:44;;;;;;;3.30;3.20;;;;;;;8.55;100.00;61477.47;5093236;28;20253;-64
2024/01/04 00:45:13;;;;;;;3.13;3.03;;;;;;;8.51;100.00;56611.03;5093174;28;20634;-64
2024/01/04 00:47:40;;;;;;;3.00;2.90;;;;;;;8.31;100.00;55296.38;5092831;28;20195;-64
2024/01/04 00:50:08;;;;;;;3.40;3.23;;;;;;;8.27;100.00;51087.53;5092646;28;20188;-64
2024/01/04 00:52:35;;;;;;;3.23;3.13;;;;;;;8.07;100.00;50746.97;5092550;28;20184;-64
2024/01/04 00:55:02;;;;;;;3.30;3.07;;;;;;;8.03;100.00;49128.31;5092435;28;20236;-64
2024/01/04 00:57:29;;;;;;;3.20;3.00;;;;;;;8.04;100.00;46223.44;5092793;28;20180;-63
2024/01/04 00:59:56;;;;;;;3.70;3.50;;;;;;;8.06;100.00;43967.41;5092656;28;20191;-63
2024/01/04 01:02:24;;;;;;;4.50;4.30;;;;;;;7.88;100.00;41053.38;5092786;28;20188;-63
2024/01/04 01:04:51;;;;;;;4.13;3.93;;;;;;;7.93;100.00;35585.38;5092876;28;20219;-64
2024/01/04 01:07:18;;;;;;;5.10;4.80;;;;;;;7.90;100.00;35261.56;5092625;28;20704;-64
2024/01/04 01:09:45;;;;;;;5.03;4.73;;;;;;;8.12;100.00;35597.13;5092358;28;20184;-63
2024/01/04 01:12:12;;;;;;;4.60;4.20;;;;;;;8.18;100.00;38498.09;5092432;28;20245;-64
2024/01/04 01:14:39;;;;;;;4.60;4.30;;;;;;;8.08;100.00;41711.97;5092311;28;20180;-65
2024/01/04 01:17:06;;;;;;;4.77;4.57;;;;;;;8.16;100.00;43329.78;5092199;28;20245;-64
2024/01/04 01:19:35;;;;;;;5.13;4.90;;;;;;;8.16;100.00;43652.66;5092227;28;20249;-64
2024/01/04 01:22:03;;;;;;;4.67;4.47;;;;;;;8.18;100.00;41075.16;5092478;28;20188;-65
2024/01/04 01:24:30;;;;;;;5.10;4.90;;;;;;;8.28;100.00;39793.06;5092467;28;20722;-65
2024/01/04 01:26:57;;;;;;;4.77;4.40;;;;;;;8.28;100.00;40115.25;5091991;28;20187;-64
2024/01/04 01:29:24;;;;;;;5.60;5.20;;;;;;;8.38;100.00;41733.75;5092243;28;20180;-64
2024/01/04 01:31:51;;;;;;;5.87;5.57;;;;;;;8.22;100.00;41399.97;5091926;28;20184;-63
2024/01/04 01:34:18;;;;;;;6.80;6.30;;;;;;;8.51;100.00;40776.38;5092391;28;20216;-64
2024/01/04 01:36:46;;;;;;;5.83;5.53;;;;;;;8.56;100.00;44005.78;5092297;28;20222;-64
2024/01/04 01:39:13;;;;;;;5.93;5.53;;;;;;;8.62;100.00;45947.16;5091861;28;20192;-64
2024/01/04 01:41:40;;;;;;;7.30;6.60;;;;;;;8.49;100.00;50783.78;5092305;28;20620;-65
2024/01/04 01:44:08;;;;;;;7.10;6.53;;;;;;;8.45;100.00;53691.44;5091882;28;20208;-64
2024/01/04 01:46:35;;;;;;;6.43;6.03;;;;;;;8.70;100.00;55657.78;5091957;28;20180;-64
2024/01/04 01:49:02;;;;;;;7.37;6.83;;;;;;;8.71;100.00;55334.84;5091896;28;20183;-64
2024/01/04 01:51:29;;;;;;;8.10;5.73;;;;;;;8.77;100.00;54691.88;5092201;28;20184;-64
2024/01/04 01:53:58;;;;;;;6.73;6.23;;;;;;;8.65;100.00;54680.94;5091571;28;20231;-63
2024/01/04 01:56:25;;;;;;;6.10;5.80;;;;;;;8.80;100.00;53723.72;5091723;28;20184;-65
2024/01/04 01:58:53;;;;;;;6.13;5.67;;;;;;;8.89;100.00;54055.50;5091744;28;20253;-64
2024/01/04 02:01:20;;;;;;;5.90;5.60;;;;;;;8.67;100.00;55331.00;5091637;28;20252;-63
2024/01/04 02:03:48;;;;;;;4.90;4.50;;;;;;;8.84;100.00;56643.00;5091776;28;20231;-64
2024/01/04 02:06:15;;;;;;;4.97;4.77;;;;;;;8.92;100.00;57947.13;5091777;28;20184;-64
2024/01/04 02:08:44;;;;;;;5.20;4.90;;;;;;;9.00;100.00;61200.22;5091862;28;20192;-64
2024/01/04 02:11:12;;;;;;;4.67;4.37;;;;;;;8.90;100.00;66710.97;5091631;28;20228;-64
2024/01/04 02:13:39;;;;;;;5.00;4.70;;;;;;;8.90;100.00;67361.19;5091899;28;20176;-63
2024/01/04 02:16:07;;;;;;;4.07;3.87;;;;;;;8.87;100.00;66707.53;5091714;28;20269;-64
2024/01/04 02:18:34;;;;;;;3.60;3.50;;;;;;;8.88;100.00;64758.81;5091967;28;20543;-64
2024/01/04 02:21:02;;;;;;;3.10;3.00;;;;;;;8.91;100.00;63462.84;5091586;28;20242;-65
2024/01/04 02:23:30;;;;;;;3.60;3.40;;;;;;;8.98;100.00;63471.06;5091409;28;20204;-64
2024/01/04 02:25:57;;;;;;;3.00;2.90;;;;;;;9.03;100.00;64126.28;5091630;28;20230;-64
2024/01/04 02:28:24;;;;;;;2.80;2.70;;;;;;;9.08;100.00;64781.19;5091732;28;20253;-63
2024/01/04 02:30:51;;;;;;;2.90;2.80;;;;;;;9.15;100.00;66414.56;5091381;28;20184;-64
2024/01/04 02:33:18;;;;;;;2.67;2.57;;;;;;;9.10;100.00;72593.00;5091402;28;20184;-64
2024/01/04 02:35:45;;;;;;;2.80;2.70;;;;;;;9.18;100.00;75861.78;5091710;28;20328;-65
2024/01/04 02:38:13;;;;;;;2.77;2.67;;;;;;;9.21;100.00;76191.19;5091647;28;20213;-64
2024/01/04 02:40:41;;;;;;;2.07;1.97;;;;;;;9.08;100.00;78458.13;5091760;28;20597;-65
2024/01/04 02:43:09;;;;;;;2.70;2.60;;;;;;;9.27;100.00;79136.56;5091555;28;20712;-65
2024/01/04 02:45:37;;;;;;;3.00;2.90;;;;;;;9.17;100.00;85985.00;5091313;28;20208;-64
2024/01/04 02:48:04;;;;;;;3.00;2.90;;;;;;;9.09;100.00;91208.59;5094693;28;20191;-65
2024/01/04 02:50:31;;;;;;;3.07;2.80;;;;;;;9.15;100.00;92528.38;5095602;28;20188;-64
2024/01/04 02:52:59;;;;;;;3.17;3.07;;;;;;;9.08;100.00;94483.59;5095022;28;20649;-64
2024/01/04 02:55:26;;;;;;;3.37;3.20;;;;;;;8.89;100.00;93142.31;5095699;28;20562;-64
2024/01/04 02:57:54;;;;;;;4.23;4.03;;;;;;;8.73;100.00;90171.41;5095320;28;20657;-65
2024/01/04 03:00:22;;;;;;;4.03;3.83;;;;;;;8.90;100.00;83330.25;5095072;28;20180;-64
2024/01/04 03:02:49;;;;;;;5.53;5.13;;;;;;;8.82;100.00;77771.53;5094804;28;20245;-64
2024/01/04 03:05:18;;;;;;;4.50;4.30;;;;;;;8.75;100.00;73200.44;5094676;28;20207;-64
2024/01/04 03:07:46;;;;;;;7.77;7.27;;;;;;;8.71;100.00;70592.22;5094869;28;20592;-64
2024/01/04 03:10:13;;;;;;;4.90;4.47;;;;;;;8.70;100.00;67339.09;5094765;28;20244;-65
2024/01/04 03:12:40;;;;;;;10.73;9.97;;;;;;;8.70;100.00;67338.50;5094672;28;20176;-64
2024/01/04 03:15:10;;;;;;;10.63;9.57;;;;;;;8.59;100.00;67976.34;5094800;28;20695;-64
2024/01/04 03:17:37;;;;;;;10.60;10.00;;;;;;;8.52;100.00;71219.69;5094774;28;20241;-64
2024/01/04 03:20:05;;;;;;;10.20;9.60;;;;;;;8.40;100.00;67628.56;5094446;28;20184;-64
2024/01/04 03:22:32;;;;;;;8.80;8.30;;;;;;;8.58;100.00;65375.88;5094734;28;20611;-63
2024/01/04 03:24:59;;;;;;;10.03;9.07;;;;;;;8.52;100.00;66018.69;5094546;28;20204;-64
2024/01/04 03:27:26;;;;;;;13.40;12.30;;;;;;;8.54;100.00;66345.78;5094638;28;20184;-65
2024/01/04 03:29:55;;;;;;;12.83;11.70;;;;;;;8.61;100.00;60835.03;5095069;28;20592;-65
2024/01/04 03:32:23;;;;;;;9.20;8.70;;;;;;;8.62;100.00;62133.84;5094677;28;20249;-64
2024/01/04 03:34:51;;;;;;;8.10;7.60;;;;;;;8.54;100.00;66670.09;5094237;28;20176;-63
2024/01/04 03:37:18;;;;;;;7.67;7.33;;;;;;;8.50;100.00;74797.41;5094532;28;20654;-64
2024/01/04 03:39:45;;;;;;;7.27;6.87;;;;;;;8.37;100.00;83255.97;5094176;28;20195;-63
2024/01/04 03:42:12;;;;;;;7.30;6.80;;;;;;;8.27;100.00;78676.88;5093882;28;20184;-64
2024/01/04 03:44:39;;;;;;;7.07;6.60;;;;;;;8.30;100.00;79006.22;5094178;28;20215;-64
2024/01/04 03:47:06;;;;;;;6.10;5.80;;;;;;;8.03;100.00;78643.78;5094143;28;20258;-65
2024/01/04 03:49:35;;;;;;;8.60;8.10;;;;;;;7.71;100.00;74696.44;5093698;28;20181;-63
2024/01/04 03:52:02;;;;;;;6.20;5.87;;;;;;;7.56;100.00;73052.50;5093682;28;20184;-63
2024/01/04 03:54:29;;;;;;;6.30;6.00;;;;;;;7.52;100.00;67851.47;5093740;28;20285;-65
2024/01/04 03:56:56;;;;;;;5.80;5.50;;;;;;;7.34;100.00;65237.03;5093592;28;20237;-63
2024/01/04 03:59:23;;;;;;;7.57;6.93;;;;;;;7.47;100.00;60068.53;5092773;28;20261;-63
2024/01/04 04:01:50;;;;;;;6.90;6.07;;;;;;;7.39;100.00;55208.84;5094062;28;20188;-64
2024/01/04 04:04:17;;;;;;;9.07;8.57;;;;;;;7.49;100.00;48759.66;5094054;28;20674;-64
2024/01/04 04:06:46;;;;;;;7.00;6.47;;;;;;;7.43;100.00;43919.03;5093856;28;20185;-64
2024/01/04 04:09:13;;;;;;;9.80;9.20;;;;;;;7.54;100.00;41350.59;5093598;28;20196;-65
2024/01/04 04:11:40;;;;;;;9.80;9.10;;;;;;;7.61;100.00;39102.94;5093704;28;20662;-63
2024/01/04 04:14:09;;;;;;;8.90;8.13;;;;;;;7.61;100.00;39102.94;5093472;28;20206;-64
2024/01/04 04:16:41;;;;;;;8.80;7.90;;;;;;;7.63;100.00;41035.22;5093308;28;20195;-64
2024/01/04 04:19:08;;;;;;;9.37;8.73;;;;;;;7.62;100.00;43933.75;5093488;28;20219;-65
2024/01/04 04:21:35;;;;;;;9.30;8.70;;;;;;;7.38;100.00;42626.59;5093554;28;20531;-63
2024/01/04 04:24:04;;;;;;;9.97;9.17;;;;;;;7.24;100.00;41329.41;5092951;28;20321;-64
2024/01/04 04:26:31;;;;;;;9.10;8.53;;;;;;;7.27;100.00;37472.13;5093584;28;20608;-64
2024/01/04 04:28:58;;;;;;;10.40;9.80;;;;;;;7.26;100.00;37471.13;5093129;28;20191;-64
2024/01/04 04:31:25;;;;;;;12.23;11.47;;;;;;;7.33;100.00;37154.69;5093544;28;20227;-64
2024/01/04 04:33:53;;;;;;;10.97;9.87;;;;;;;7.38;100.00;37479.13;5093266;28;20652;-63
2024/01/04 04:36:20;;;;;;;12.27;11.27;;;;;;;7.37;100.00;39086.28;5093253;28;20721;-64
2024/01/04 04:38:47;;;;;;;11.83;10.73;;;;;;;7.38;100.00;39087.00;5092810;28;20648;-64
2024/01/04 04:41:16;;;;;;;11.63;10.70;;;;;;;7.17;100.00;39715.91;5093419;28;20626;-64
2024/01/04 04:43:43;;;;;;;10.73;10.13;;;;;;;7.29;100.00;41976.38;5093037;28;20180;-63
2024/01/04 04:46:11;;;;;;;10.60;9.90;;;;;;;7.20;100.00;44867.41;5092443;28;20367;-64
2024/01/04 04:48:38;;;;;;;10.37;9.67;;;;;;;6.93;100.00;47100.59;5092532;28;20230;-64
2024/01/04 04:51:05;;;;;;;11.80;10.77;;;;;;;7.05;100.00;48077.38;5092893;28;20237;-68
2024/01/04 04:53:32;;;;;;;12.10;11.30;;;;;;;7.04;100.00;45821.00;5092409;28;20232;-63
2024/01/04 04:55:59;;;;;;;12.27;11.30;;;;;;;6.86;100.00;43553.91;5092815;28;20635;-64
2024/01/04 04:58:29;;;;;;;14.63;13.13;;;;;;;6.77;100.00;40973.91;5092706;28;20184;-63
2024/01/04 05:00:57;;;;;;;12.03;11.27;;;;;;;6.82;100.00;38084.56;5092350;28;20184;-63
2024/01/04 05:03:24;;;;;;;16.00;14.17;;;;;;;6.64;100.00;35825.00;5092447;28;20345;-64
2024/01/04 05:05:51;;;;;;;21.40;15.70;;;;;;;6.92;100.00;35521.53;5092918;28;20802;-63
2024/01/04 05:08:18;;;;;;;15.33;13.83;;;;;;;6.83;100.00;36479.63;5092567;28;20205;-64
2024/01/04 05:10:45;;;;;;;15.87;14.47;;;;;;;6.80;100.00;36477.69;5092189;28;20189;-64
2024/01/04 05:13:12;;;;;;;17.50;15.80;;;;;;;6.81;100.00;35640.25;5092866;28;20715;-63
2024/01/04 05:15:42;;;;;;;18.77;16.73;;;;;;;6.84;100.00;35476.63;5092271;28;20191;-64
2024/01/04 05:18:10;;;;;;;20.53;16.07;;;;;;;6.80;100.00;35201.06;5092545;28;20719;-64
2024/01/04 05:20:37;;;;;;;18.77;16.83;;;;;;;6.85;100.00;35173.78;5092073;28;20210;-63
2024/01/04 05:23:04;;;;;;;19.07;16.40;;;;;;;6.91;100.00;34520.53;5092441;28;20191;-64
2024/01/04 05:25:31;;;;;;;16.53;15.03;;;;;;;7.01;100.00;33781.63;5092721;28;20620;-65
2024/01/04 05:27:59;;;;;;;20.43;17.27;;;;;;;7.02;100.00;34023.25;5091968;28;20180;-64
2024/01/04 05:30:26;;;;;;;17.70;16.00;;;;;;;7.12;100.00;34796.91;5092320;28;20208;-64
2024/01/04 05:32:54;;;;;;;15.03;13.50;;;;;;;7.17;100.00;34732.00;5091881;28;20184;-64
2024/01/04 05:35:21;;;;;;;16.43;14.97;;;;;;;7.27;100.00;33343.41;5092323;28;20624;-64
2024/01/04 05:37:48;;;;;;;15.97;14.67;;;;;;;7.19;100.00;36690.69;5092155;28;20210;-63
2024/01/04 05:40:16;;;;;;;16.87;15.27;;;;;;;7.16;100.00;37143.09;5091803;28;20188;-64
2024/01/04 05:42:43;;;;;;;18.40;14.30;;;;;;;7.11;100.00;38103.88;5091778;28;20216;-64
2024/01/04 05:45:11;;;;;;;13.00;12.10;;;;;;;7.14;100.00;35535.78;5091753;28;20220;-63
2024/01/04 05:47:38;;;;;;;19.70;15.10;;;;;;;6.92;100.00;36806.34;5091779;28;20257;-64
2024/01/04 05:50:08;;;;;;;15.00;13.60;;;;;;;7.16;100.00;36500.78;5091836;28;20176;-63
2024/01/04 05:52:35;;;;;;;19.90;15.33;;;;;;;7.23;100.00;35541.50;5092016;28;20234;-64
2024/01/04 05:55:02;;;;;;;18.40;15.90;;;;;;;7.22;100.00;35862.13;5091421;28;20551;-64
2024/01/04 05:57:29;;;;;;;24.17;16.83;;;;;;;7.25;100.00;36185.00;5091621;28;20247;-63
2024/01/04 05:59:56;;;;;;;18.73;16.97;;;;;;;7.26;100.00;35864.34;5091599;28;20191;-65
2024/01/04 06:02:26;;;;;;;22.07;17.60;;;;;;;7.26;100.00;35864.34;5091754;28;20559;-59
2024/01/04 06:04:53;;;;;;;26.57;19.60;;;;;;;7.41;100.00;32982.72;5091345;28;20312;-60
2024/01/04 06:07:22;;;;;;;22.77;19.80;;;;;;;7.54;100.00;31385.38;5091556;28;20189;-60
2024/01/04 06:09:49;;;;;;;24.20;20.20;;;;;;;7.98;100.00;29482.97;5091527;28;20184;-59
2024/01/04 06:12:16;;;;;;;27.37;23.13;;;;;;;8.12;100.00;31417.69;5091406;28;20184;-60
2024/01/04 06:14:43;;;;;;;22.57;20.33;;;;;;;8.61;100.00;43041.50;5091426;28;20188;-58
2024/01/04 06:17:11;;;;;;;30.70;24.13;;;;;;;8.93;100.00;62815.50;5091432;28;20196;-57
2024/01/04 06:19:38;;;;;;;31.03;21.90;;;;;;;9.32;100.00;92555.28;5091798;28;20566;-57
2024/01/04 06:22:05;;;;;;;25.00;22.23;;;;;;;9.65;100.00;131519.06;5093837;28;20202;-58
2024/01/04 06:24:33;;;;;;;22.87;20.30;;;;;;;9.89;100.00;148527.66;5095660;28;20188;-58
2024/01/04 06:27:00;;;;;;;26.37;22.07;;;;;;;10.49;100.00;148678.09;5095838;28;20238;-58
2024/01/04 06:29:27;;;;;;;26.70;23.53;;;;;;;10.96;100.00;148795.66;5095580;28;20218;-58
2024/01/04 06:31:54;;;;;;;22.47;20.27;;;;;;;11.14;100.00;148841.19;5095279;28;20184;-58
2024/01/04 06:34:22;;;;;;;24.50;21.90;;;;;;;11.62;100.00;148960.09;5095933;28;20331;-58
2024/01/04 06:36:49;;;;;;;29.63;22.53;;;;;;;12.25;100.00;149119.59;5095092;28;20184;-58
2024/01/04 06:39:16;;;;;;;27.87;24.87;;;;;;;12.68;100.00;149225.94;5096061;28;20536;-58
2024/01/04 06:41:45;;;;;;;34.47;25.27;;;;;;;13.05;100.00;149319.63;5095032;28;20242;-58
2024/01/04 06:44:12;;;;;;;21.17;19.03;;;;;;;13.67;100.00;149474.22;5095000;28;20638;-58
2024/01/04 06:46:39;;;;;;;17.50;16.00;;;;;;;14.22;100.00;149611.09;5095683;28;20637;-58
2024/01/04 06:49:07;;;;;;;14.93;13.53;;;;;;;14.86;100.00;149772.19;5095729;28;20237;-63
2024/01/04 06:51:34;;;;;;;17.93;16.33;;;;;;;15.42;100.00;149913.00;5095359;28;20321;-64
2024/01/04 06:54:02;;;;;;;19.80;17.90;;;;;;;15.55;100.00;149946.03;5095025;28;20262;-62
2024/01/04 06:56:29;;;;;;;21.40;19.17;;;;;;;15.95;100.00;150046.31;5094993;28;20707;-62
2024/01/04 06:58:58;;;;;;;24.43;18.13;;;;;;;15.90;100.00;150033.63;5095068;28;20188;-62
2024/01/04 07:01:25;;;;;;;19.70;17.67;;;;;;;16.31;100.00;150136.44;5095169;28;20191;-63
2024/01/04 07:03:52;;;;;;;49.10;35.67;;;;;;;15.95;100.00;150046.31;5096972;28;20196;-63
2024/01/04 07:06:19;;;;;;;42.03;26.03;;;;;;;16.46;100.00;150175.78;5095666;28;20212;-62
2024/01/04 07:08:48;;;;;;;24.10;17.33;;;;;;;16.86;100.00;150274.91;5094457;28;20198;-62
2024/01/04 07:11:15;;;;;;;12.77;11.63;;;;;;;16.79;100.00;150258.41;5095020;28;20191;-62
2024/01/04 07:13:42;;;;;;;14.80;12.13;;;;;;;16.95;100.00;150297.78;5094719;28;20195;-63
2024/01/04 07:16:11;;;;;;;38.90;27.13;;;;;;;16.93;100.00;150292.66;5094375;28;20176;-62
2024/01/04 07:18:38;;;;;;;17.80;13.20;;;;;;;17.26;100.00;150375.28;5094485;28;20194;-63
2024/01/04 07:21:05;;;;;;;13.77;12.87;;;;;;;17.73;100.00;150493.50;5094241;28;20262;-62
2024/01/04 07:23:32;;;;;;;13.70;12.83;;;;;;;19.01;100.00;150815.28;5095002;28;20274;-63
2024/01/04 07:26:00;;;;;;;13.63;12.70;;;;;;;18.87;97.95;150779.63;5094358;28;20227;-62
2024/01/04 07:28:27;;;;;;;13.30;12.33;;;;;;;19.26;95.25;150878.88;5094497;28;20653;-62
2024/01/04 07:30:54;;;;;;;14.77;13.73;;;;;;;19.28;98.86;150883.97;5094259;28;20536;-62
2024/01/04 07:33:23;;;;;;;14.60;13.50;;;;;;;18.81;100.00;150764.34;5093616;28;20180;-63
2024/01/04 07:35:50;;;;;;;12.17;11.30;;;;;;;17.59;100.00;150459.19;5093822;28;20215;-64
2024/01/04 07:38:17;;;;;;;11.83;10.90;;;;;;;17.72;100.00;150492.22;5094045;28;20654;-62
2024/01/04 07:40:44;;;;;;;12.03;11.30;;;;;;;18.06;100.00;150576.13;5093799;28;20188;-64
2024/01/04 07:43:11;;;;;;;12.03;11.43;;;;;;;18.11;100.00;150590.13;5093967;28;20263;-62
2024/01/04 07:45:39;;;;;;;13.23;11.90;;;;;;;18.22;100.00;150616.78;5093801;28;20243;-63
2024/01/04 07:48:06;;;;;;;13.63;12.47;;;;;;;18.02;100.00;150565.97;5093702;28;20558;-62
2024/01/04 07:50:35;;;;;;;12.80;11.93;;;;;;;17.34;100.00;150395.59;5093554;28;20188;-63
2024/01/04 07:53:02;;;;;;;12.30;11.50;;;;;;;17.40;100.00;150410.81;5093654;28;20224;-62
2024/01/04 07:55:29;;;;;;;12.47;11.53;;;;;;;18.14;100.00;150596.47;5093365;28;20184;-62
2024/01/04 07:57:56;;;;;;;12.57;11.53;;;;;;;18.69;100.00;150736.41;5093518;28;20332;-63
2024/01/04 08:00:23;;;;;;;12.10;11.13;;;;;;;18.68;100.00;150733.84;5093833;28;20180;-62
2024/01/04 08:02:51;;;;;;;11.33;10.53;;;;;;;18.93;100.00;150794.88;5093621;28;20188;-63
2024/01/04 08:05:18;;;;;;;11.77;11.07;;;;;;;18.74;100.00;150747.84;5094199;28;20215;-63
2024/01/04 08:07:47;;;;;;;10.50;10.03;;;;;;;19.00;100.00;150812.72;5093620;28;20403;-64
2024/01/04 08:10:14;;;;;;;11.20;10.57;;;;;;;18.83;100.00;150770.75;5093411;28;20191;-62
2024/01/04 08:12:42;;;;;;;12.43;11.20;;;;;;;18.88;100.00;150782.19;5093287;28;20241;-62
2024/01/04 08:15:10;;;;;;;27.97;11.03;;;;;;;18.89;100.00;150784.72;5094147;28;20558;-63
2024/01/04 08:17:37;;;;;;;27.60;10.77;;;;;;;18.88;100.00;150782.19;5093239;28;20184;-63
2024/01/04 08:20:06;;;;;;;31.30;11.10;;;;;;;18.96;100.00;150803.81;5093196;28;20192;-63
2024/01/04 08:22:33;;;;;;;19.70;9.30;;;;;;;19.31;97.48;150891.56;5093551;28;20634;-63
2024/01/04 08:25:02;;;;;;;11.53;7.43;;;;;;;19.45;97.18;150926.00;5093320;28;20188;-63
2024/01/04 08:27:29;;;;;;;7.97;6.57;;;;;;;19.42;92.63;150918.31;5093389;28;20204;-62
2024/01/04 08:29:56;;;;;;;6.70;6.07;;;;;;;18.92;90.21;150793.66;5093543;28;20218;-63
2024/01/04 08:32:23;;;;;;;5.83;5.27;;;;;;;19.14;91.13;150848.31;5093064;28;20222;-64
2024/01/04 08:34:50;;;;;;;5.40;5.07;;;;;;;19.79;85.64;151011.28;5092751;28;20548;-61
2024/01/04 08:37:25;;;;;;;6.90;6.40;;;;;;;20.17;80.50;151108.03;5092730;28;20242;-64
2024/01/04 08:39:53;;;;;;;13.38;12.57;;;;;;;19.95;80.22;151052.00;5092065;28;20191;-62
2024/01/04 08:42:22;;;;;;;17.00;15.50;;;;;;;20.85;76.72;151278.72;5093024;28;20658;-63
2024/01/04 08:44:49;;;;;;;15.00;13.70;;;;;;;21.48;71.93;151438.03;5092667;28;20184;-63
2024/01/04 08:47:16;;;;;;;14.18;13.48;;;;;;;21.84;67.00;151528.53;5092627;28;20298;-63
2024/01/04 08:49:43;;;;;;;15.50;12.90;;;;;;;21.42;69.54;151424.03;5093073;28;20270;-64
2024/01/04 08:52:10;;;;;;;15.27;12.20;;;;;;;22.31;66.28;151647.16;5092918;28;20187;-62
2024/01/04 08:54:38;;;;;;;15.05;11.30;;;;;;;23.48;62.29;151941.91;5093534;28;20610;-63
2024/01/04 08:57:07;;;;;;;15.75;10.23;;;;;;;22.98;60.24;151816.84;5093213;28;20593;-63
2024/01/04 08:59:37;;;;;;;9.48;8.88;;;;;;;23.09;61.32;151844.88;5092596;28;20215;-62
2024/01/04 09:02:04;;;;;;;12.68;8.70;;;;;;;23.86;58.61;152038.91;5092574;28;20630;-63
2024/01/04 09:04:31;;;;;;;23.92;8.98;;;;;;;23.86;57.89;152038.91;5092451;28;20192;-62
2024/01/04 09:06:59;;;;;;;17.10;8.73;;;;;;;24.52;55.64;152204.97;5092255;28;20327;-63
2024/01/04 09:09:26;;;;;;;7.68;7.15;;;;;;;24.48;55.02;152194.75;5092507;28;20267;-62
2024/01/04 09:11:53;;;;;;;13.18;7.22;;;;;;;25.13;53.08;152359.53;5092532;28;20184;-63
2024/01/04 09:14:20;;;;;;;12.20;7.13;;;;;;;24.63;53.32;152233.03;5092167;28;20200;-65
2024/01/04 09:16:49;;;;;;;7.68;7.13;;;;;;;24.63;54.50;152233.03;5092704;28;20196;-63
2024/01/04 09:19:17;;;;;;;6.95;6.65;;;;;;;24.92;54.61;152305.88;5092289;28;20176;-64
2024/01/04 09:21:45;;;;;;;8.30;6.50;;;;;;;24.50;56.33;152199.84;5092099;28;20212;-63
2024/01/04 09:24:12;;;;;;;5.90;5.60;;;;;;;24.04;55.17;152084.88;5092132;28;20188;-63
2024/01/04 09:26:40;;;;;;;6.47;5.90;;;;;;;22.80;58.53;151770.91;5092247;28;20220;-63
2024/01/04 09:29:08;;;;;;;8.90;5.85;;;;;;;22.35;61.74;151656.09;5092226;28;20550;-63
2024/01/04 09:31:35;;;;;;;6.60;5.72;;;;;;;21.94;64.49;151552.81;5091893;28;20233;-62
2024/01/04 09:34:04;;;;;;;7.22;5.22;;;;;;;22.68;63.39;151741.53;5091863;28;20414;-64
2024/01/04 09:36:31;;;;;;;10.27;6.00;;;;;;;22.55;62.58;151707.09;5092088;28;20192;-63
2024/01/04 09:38:58;;;;;;;7.15;5.68;;;;;;;22.03;66.58;151577.00;5092610;28;20180;-64
2024/01/04 09:41:28;;;;;;;5.32;5.13;;;;;;;21.96;66.39;151559.19;5092023;28;20286;-64
2024/01/04 09:43:57;;;;;;;5.53;4.60;;;;;;;21.62;69.57;151472.44;5092294;28;20658;-64
2024/01/04 09:46:26;;;;;;;15.32;6.45;;;;;;;21.03;72.99;151323.31;5091794;28;20207;-63
2024/01/04 09:48:59;;;;;;;6.70;6.05;;;;;;;21.11;77.03;151344.97;5091560;28;20218;-64
2024/01/04 09:51:29;;;;;;;7.68;6.35;;;;;;;21.70;74.81;151492.84;5091633;28;20194;-63
2024/01/04 09:53:56;;;;;;;10.77;8.00;;;;;;;21.53;71.37;151450.78;5091629;28;20238;-64
2024/01/04 09:56:24;;;;;;;10.85;9.90;;;;;;;21.42;73.00;151422.75;5094481;28;20184;-64
2024/01/04 09:58:52;;;;;;;11.18;10.25;;;;;;;21.29;74.62;151390.91;5095891;28;20192;-64
2024/01/04 10:01:21;;;;;;;11.95;11.05;;;;;;;21.46;73.09;151431.69;5096246;28;20563;-64
2024/01/04 10:03:49;;;;;;;15.20;11.65;;;;;;;21.99;74.66;151566.81;5095823;28;20223;-64
2024/01/04 10:06:24;;;;;;;19.63;12.88;;;;;;;22.29;68.52;151642.03;5096701;28;20218;-63
2024/01/04 10:08:57;;;;;;;22.75;13.50;;;;;;;23.72;63.73;152003.16;5096110;28;20207;-63
2024/01/04 10:11:29;;;;;;;15.43;12.45;;;;;;;25.02;57.31;152332.72;5095624;28;20194;-62
2024/01/04 10:13:57;;;;;;;16.98;12.45;;;;;;;25.73;53.39;152511.66;5095821;28;20212;-64
2024/01/04 10:16:27;;;;;;;13.63;12.52;;;;;;;26.21;53.60;152631.84;5095509;28;20230;-64
2024/01/04 10:18:58;;;;;;;12.95;11.88;;;;;;;26.52;51.33;152709.88;5095705;28;20194;-64
2024/01/04 10:21:33;;;;;;;13.05;10.25;;;;;;;27.34;49.35;152918.38;5095518;28;20230;-65
2024/01/04 10:24:03;;;;;;;13.05;9.35;;;;;;;27.24;48.28;152892.81;5095799;28;20180;-65
2024/01/04 10:26:31;;;;;;;10.10;9.63;;;;;;;27.61;46.95;152986.25;5095569;28;20310;-65
2024/01/04 10:28:59;;;;;;;9.95;9.25;;;;;;;28.13;45.59;153119.34;5095312;28;20271;-64
2024/01/04 10:31:26;;;;;;;18.08;10.60;;;;;;;28.81;43.93;153289.72;5095400;28;20180;-64
2024/01/04 10:33:57;;;;;;;9.25;8.50;;;;;;;29.74;42.68;153525.44;5095445;28;20233;-64
2024/01/04 10:36:28;;;;;;;8.52;7.90;;;;;;;30.39;41.22;153692.06;5095497;28;20188;-65
2024/01/04 10:38:56;;;;;;;8.73;8.00;;;;;;;30.97;39.65;153838.28;5095583;28;20207;-65
2024/01/04 10:41:25;;;;;;;8.00;7.50;;;;;;;30.55;39.53;153730.59;5095366;28;20188;-64
2024/01/04 10:43:52;;;;;;;6.25;6.05;;;;;;;30.34;39.31;153678.00;5095014;28;20192;-64
2024/01/04 10:46:19;;;;;;;14.80;7.57;;;;;;;29.83;40.84;153549.75;5094954;28;20204;-64
2024/01/04 10:48:47;;;;;;;17.25;8.40;;;;;;;29.84;40.61;153552.31;5095512;28;20643;-64
2024/01/04 10:51:16;;;;;;;9.70;7.97;;;;;;;30.20;39.93;153643.38;5095113;28;20371;-65
2024/01/04 10:53:44;;;;;;;22.70;7.85;;;;;;;31.06;38.84;153861.44;5095009;28;20651;-63
2024/01/04 10:56:12;;;;;;;41.80;9.38;;;;;;;31.98;37.34;154093.59;5095650;28;20279;-65
2024/01/04 10:58:41;;;;;;;5.78;5.38;;;;;;;31.86;37.33;154062.81;5095036;28;20207;-64
2024/01/04 11:01:10;;;;;;;6.15;5.65;;;;;;;32.44;35.95;154210.41;5095262;28;20184;-64
2024/01/04 11:03:42;;;;;;;5.57;5.38;;;;;;;33.30;35.05;154428.72;5094724;28;20184;-64
2024/01/04 11:06:09;;;;;;;6.25;5.63;;;;;;;33.71;34.30;154534.06;5093842;28;20633;-65
2024/01/04 11:08:39;;;;;;;5.28;4.97;;;;;;;33.66;34.15;154521.22;5096227;28;20184;-64
2024/01/04 11:11:07;;;;;;;5.50;5.20;;;;;;;33.70;33.90;154531.47;5094874;28;20249;-65
2024/01/04 11:13:34;;;;;;;4.68;4.47;;;;;;;34.27;32.70;154675.41;5094603;28;20244;-64
2024/01/04 11:16:13;;;;;;;6.03;5.60;;;;;;;34.60;32.23;154760.19;5095014;28;20188;-64
2024/01/04 11:18:50;;;;;;;5.72;5.40;;;;;;;34.10;32.25;154632.97;5094278;28;20180;-63
2024/01/04 11:21:44;;;;;;;5.85;5.35;;;;;;;34.01;33.24;154608.53;5094189;28;20192;-64
2024/01/04 11:24:28;;;;;;;37.03;8.45;;;;;;;33.03;33.50;154361.91;5094388;28;20703;-66